createdAt,value
2018-11-04T00:01:20.117Z,1.57
2018-11-04T00:03:47.184Z,1.70
2018-11-04T00:06:14.240Z,1.80
2018-11-04T00:08:41.317Z,1.80
2018-11-04T00:11:08.417Z,1.70
2018-11-04T00:13:35.470Z,1.60
2018-11-04T00:16:02.517Z,1.60
2018-11-04T00:18:29.577Z,2.17
2018-11-04T00:20:56.640Z,1.80
2018-11-04T00:23:23.726Z,1.40
2018-11-04T00:25:50.804Z,1.73
2018-11-04T00:28:17.857Z,1.90
2018-11-04T00:30:44.949Z,1.87
2018-11-04T00:33:12.003Z,1.60
2018-11-04T00:35:39.046Z,2.20
2018-11-04T00:38:06.117Z,1.40
2018-11-04T00:40:33.159Z,2.40
2018-11-04T00:43:00.210Z,1.60
2018-11-04T00:45:27.300Z,2.00
2018-11-04T00:47:54.329Z,2.47
2018-11-04T00:50:21.437Z,1.87
2018-11-04T00:52:48.496Z,2.10
2018-11-04T00:55:15.544Z,2.20
2018-11-04T00:57:42.839Z,2.20
2018-11-04T01:00:14.257Z,1.73
2018-11-04T01:02:42.234Z,1.90
2018-11-04T01:05:09.922Z,1.43
2018-11-04T01:07:37.460Z,2.07
2018-11-04T01:10:05.364Z,2.43
2018-11-04T01:12:32.456Z,2.07
2018-11-04T01:14:59.521Z,2.60
2018-11-04T01:17:26.564Z,1.90
2018-11-04T01:19:53.781Z,1.90
2018-11-04T01:22:20.847Z,2.27
2018-11-04T01:24:47.904Z,1.70
2018-11-04T01:27:15.351Z,2.13
2018-11-04T01:29:42.564Z,1.67
2018-11-04T01:32:09.638Z,1.90
2018-11-04T01:34:36.951Z,1.63
2018-11-04T01:37:04.163Z,2.03
2018-11-04T01:39:31.205Z,1.87
2018-11-04T01:41:58.273Z,1.80
2018-11-04T01:44:25.352Z,2.00
2018-11-04T01:46:52.388Z,1.70
2018-11-04T01:49:19.432Z,1.80
2018-11-04T01:51:46.488Z,1.73
2018-11-04T01:54:13.520Z,1.90
2018-11-04T01:56:40.720Z,1.97
2018-11-04T01:59:07.760Z,1.70
2018-11-04T02:01:34.808Z,1.60
2018-11-04T02:04:01.876Z,1.50
2018-11-04T02:06:28.970Z,1.90
2018-11-04T02:08:56.156Z,1.70
2018-11-04T02:11:23.240Z,1.83
2018-11-04T02:13:50.309Z,2.40
2018-11-04T02:16:17.373Z,1.70
2018-11-04T02:18:44.449Z,1.87
2018-11-04T02:21:11.504Z,2.03
2018-11-04T02:23:38.551Z,2.00
2018-11-04T02:26:05.902Z,2.17
2018-11-04T02:28:32.941Z,1.90
2018-11-04T02:31:00.001Z,2.13
2018-11-04T02:33:27.057Z,1.97
2018-11-04T02:35:54.125Z,2.10
2018-11-04T02:38:21.221Z,1.90
2018-11-04T02:40:48.272Z,2.10
2018-11-04T02:43:15.352Z,1.63
2018-11-04T02:45:42.392Z,2.23
2018-11-04T02:48:09.453Z,1.97
2018-11-04T02:50:36.617Z,1.63
2018-11-04T02:53:04.201Z,2.10
2018-11-04T02:55:31.433Z,2.33
2018-11-04T02:57:58.499Z,2.67
2018-11-04T03:00:25.564Z,1.60
2018-11-04T03:02:52.633Z,2.03
2018-11-04T03:05:19.689Z,2.00
2018-11-04T03:07:46.761Z,2.40
2018-11-04T03:10:14.121Z,2.00
2018-11-04T03:12:41.186Z,2.13
2018-11-04T03:15:08.252Z,2.10
2018-11-04T03:17:35.349Z,2.10
2018-11-04T03:20:02.408Z,2.30
2018-11-04T03:22:29.524Z,1.73
2018-11-04T03:24:56.609Z,2.17
2018-11-04T03:27:23.672Z,2.43
2018-11-04T03:29:50.712Z,1.90
2018-11-04T03:32:17.907Z,2.20
2018-11-04T03:34:45.009Z,1.80
2018-11-04T03:37:12.080Z,1.80
2018-11-04T03:39:39.136Z,2.13
2018-11-04T03:42:06.233Z,1.80
2018-11-04T03:44:33.301Z,1.80
2018-11-04T03:47:00.369Z,1.90
2018-11-04T03:49:27.424Z,2.43
2018-11-04T03:51:54.493Z,1.93
2018-11-04T03:54:21.588Z,1.70
2018-11-04T03:56:48.664Z,1.40
2018-11-04T03:59:15.733Z,1.73
2018-11-04T04:01:42.801Z,1.60
2018-11-04T04:04:09.858Z,1.70
2018-11-04T04:06:37.301Z,1.97
2018-11-04T04:09:06.397Z,1.70
2018-11-04T04:11:33.448Z,1.90
2018-11-04T04:14:00.532Z,2.30
2018-11-04T04:16:27.581Z,1.83
2018-11-04T04:18:54.697Z,2.10
2018-11-04T04:21:21.972Z,1.70
2018-11-04T04:23:49.036Z,1.90
2018-11-04T04:26:16.076Z,1.93
2018-11-04T04:28:43.160Z,2.27
2018-11-04T04:31:10.211Z,2.17
2018-11-04T04:33:37.258Z,2.30
2018-11-04T04:36:05.038Z,1.80
2018-11-04T04:38:32.070Z,2.10
2018-11-04T04:40:59.192Z,1.47
2018-11-04T04:43:26.573Z,1.83
2018-11-04T04:45:53.632Z,2.00
2018-11-04T04:48:20.840Z,1.70
2018-11-04T04:50:47.900Z,1.83
2018-11-04T04:53:15.002Z,2.07
2018-11-04T04:55:42.028Z,2.00
2018-11-04T04:58:09.077Z,2.00
2018-11-04T05:00:36.116Z,2.03
2018-11-04T05:03:03.176Z,2.20
2018-11-04T05:05:30.323Z,2.37
2018-11-04T05:07:57.476Z,2.23
2018-11-04T05:10:24.604Z,1.80
2018-11-04T05:12:51.811Z,1.90
2018-11-04T05:15:18.848Z,1.90
2018-11-04T05:17:45.912Z,1.93
2018-11-04T05:20:13.064Z,1.90
2018-11-04T05:22:40.119Z,1.90
2018-11-04T05:25:07.161Z,1.97
2018-11-04T05:27:34.228Z,2.00
2018-11-04T05:30:01.577Z,2.03
2018-11-04T05:32:28.640Z,1.50
2018-11-04T05:34:55.712Z,1.63
2018-11-04T05:37:22.973Z,1.80
2018-11-04T05:39:50.048Z,1.87
2018-11-04T05:42:17.131Z,1.80
2018-11-04T05:44:44.231Z,1.83
2018-11-04T05:47:11.275Z,2.20
2018-11-04T05:49:38.332Z,2.47
2018-11-04T05:52:05.408Z,2.47
2018-11-04T05:54:32.476Z,2.03
2018-11-04T05:56:59.580Z,2.03
2018-11-04T05:59:26.624Z,1.83
2018-11-04T06:01:53.707Z,2.20
2018-11-04T06:04:20.776Z,2.30
2018-11-04T06:06:47.942Z,1.70
2018-11-04T06:09:14.999Z,2.03
2018-11-04T06:11:42.044Z,2.10
2018-11-04T06:14:09.080Z,1.80
2018-11-04T06:16:36.237Z,2.43
2018-11-04T06:19:03.487Z,1.80
2018-11-04T06:21:30.534Z,1.77
2018-11-04T06:23:57.817Z,2.10
2018-11-04T06:26:24.872Z,2.57
2018-11-04T06:28:51.930Z,1.70
2018-11-04T06:31:18.985Z,1.83
2018-11-04T06:33:46.093Z,2.30
2018-11-04T06:36:13.162Z,2.40
2018-11-04T06:38:40.240Z,2.07
2018-11-04T06:41:07.372Z,1.73
2018-11-04T06:43:34.817Z,1.63
2018-11-04T06:46:01.864Z,2.13
2018-11-04T06:48:28.951Z,1.77
2018-11-04T06:50:56.264Z,1.50
2018-11-04T06:53:23.368Z,1.80
2018-11-04T06:55:50.440Z,2.47
2018-11-04T06:58:17.518Z,2.27
2018-11-04T07:00:44.604Z,2.20
2018-11-04T07:03:11.734Z,1.77
2018-11-04T07:05:38.791Z,2.20
2018-11-04T07:08:05.868Z,2.30
2018-11-04T07:10:32.921Z,1.90
2018-11-04T07:12:59.964Z,1.93
2018-11-04T07:15:27.031Z,1.90
2018-11-04T07:17:54.092Z,2.33
2018-11-04T07:20:21.796Z,2.50
2018-11-04T07:22:48.862Z,2.60
2018-11-04T07:25:15.925Z,2.20
2018-11-04T07:27:42.965Z,1.80
2018-11-04T07:30:13.332Z,2.90
2018-11-04T07:32:40.790Z,2.57
2018-11-04T07:35:08.344Z,2.10
2018-11-04T07:37:35.424Z,2.17
2018-11-04T07:40:02.460Z,2.20
2018-11-04T07:42:29.608Z,1.93
2018-11-04T07:44:57.013Z,2.17
2018-11-04T07:47:24.757Z,2.57
2018-11-04T07:49:51.805Z,2.10
2018-11-04T07:52:20.424Z,2.00
2018-11-04T07:54:47.460Z,2.60
2018-11-04T07:57:14.549Z,2.40
2018-11-04T07:59:41.610Z,1.97
2018-11-04T08:02:08.671Z,2.47
2018-11-04T08:04:35.728Z,1.97
2018-11-04T08:07:02.833Z,2.27
2018-11-04T08:09:29.915Z,1.67
2018-11-04T08:11:56.960Z,2.10
2018-11-04T08:14:24.045Z,2.10
2018-11-04T08:16:51.365Z,2.03
2018-11-04T08:19:18.424Z,2.17
2018-11-04T08:21:51.707Z,2.40
2018-11-04T08:24:25.437Z,1.60
2018-11-04T08:26:58.557Z,2.30
2018-11-04T08:29:32.329Z,2.00
2018-11-04T08:31:59.589Z,2.13
2018-11-04T08:34:26.627Z,2.07
2018-11-04T08:36:53.692Z,1.80
2018-11-04T08:39:20.736Z,2.20
2018-11-04T08:41:47.826Z,1.93
2018-11-04T08:44:14.889Z,1.77
2018-11-04T08:46:41.944Z,2.03
2018-11-04T08:49:09.016Z,1.63
2018-11-04T08:51:36.400Z,1.93
2018-11-04T08:54:05.200Z,2.13
2018-11-04T08:56:32.280Z,1.77
2018-11-04T08:58:59.355Z,2.67
2018-11-04T09:01:26.400Z,2.07
2018-11-04T09:03:53.440Z,2.33
2018-11-04T09:06:20.521Z,2.23
2018-11-04T09:08:47.564Z,1.80
2018-11-04T09:11:14.628Z,2.23
2018-11-04T09:13:41.688Z,2.97
2018-11-04T09:16:08.736Z,2.20
2018-11-04T09:18:35.785Z,2.03
2018-11-04T09:21:02.849Z,1.80
2018-11-04T09:23:36.366Z,2.63
2018-11-04T09:26:10.043Z,1.97
2018-11-04T09:28:43.593Z,2.37
2018-11-04T09:31:11.360Z,2.73
2018-11-04T09:33:38.442Z,2.50
2018-11-04T09:36:05.583Z,2.80
2018-11-04T09:38:32.830Z,3.30
2018-11-04T09:41:06.021Z,3.00
2018-11-04T09:43:39.364Z,3.33
2018-11-04T09:46:12.969Z,3.63
2018-11-04T09:48:46.632Z,3.43
2018-11-04T09:51:19.637Z,4.30
2018-11-04T09:53:53.006Z,4.00
2018-11-04T09:56:20.307Z,3.47
2018-11-04T09:58:47.332Z,4.13
2018-11-04T10:01:14.410Z,7.33
2018-11-04T10:03:41.576Z,6.37
2018-11-04T10:06:08.631Z,7.20
2018-11-04T10:08:36.049Z,6.83
2018-11-04T10:11:03.129Z,6.77
2018-11-04T10:13:30.272Z,5.87
2018-11-04T10:15:57.600Z,6.23
2018-11-04T10:18:24.649Z,5.43
2018-11-04T10:20:52.056Z,6.30
2018-11-04T10:23:18.765Z,5.53
2018-11-04T10:25:45.812Z,5.40
2018-11-04T10:28:12.888Z,5.47
2018-11-04T10:30:40.245Z,5.57
2018-11-04T10:33:07.325Z,5.00
2018-11-04T10:35:34.388Z,5.33
2018-11-04T10:38:01.464Z,5.20
2018-11-04T10:40:28.523Z,5.43
2018-11-04T10:42:55.562Z,5.50
2018-11-04T10:45:22.975Z,5.30
2018-11-04T10:47:50.023Z,5.83
2018-11-04T10:50:17.084Z,5.00
2018-11-04T10:52:44.144Z,5.77
2018-11-04T10:55:11.226Z,5.80
2018-11-04T10:57:38.403Z,5.80
2018-11-04T11:00:12.268Z,5.97
2018-11-04T11:02:39.316Z,6.37
2018-11-04T11:05:06.402Z,5.50
2018-11-04T11:07:33.472Z,4.83
2018-11-04T11:10:00.528Z,5.30
2018-11-04T11:12:27.906Z,5.47
2018-11-04T11:14:55.188Z,3.97
2018-11-04T11:17:22.249Z,4.20
2018-11-04T11:19:49.301Z,4.27
2018-11-04T11:22:16.369Z,3.57
2018-11-04T11:24:43.468Z,3.33
2018-11-04T11:27:10.502Z,3.27
2018-11-04T11:29:37.547Z,3.10
2018-11-04T11:32:04.593Z,3.47
2018-11-04T11:34:31.640Z,3.23
2018-11-04T11:36:58.721Z,3.43
2018-11-04T11:39:25.802Z,3.70
2018-11-04T11:41:52.876Z,3.60
2018-11-04T11:44:19.964Z,4.50
2018-11-04T11:46:47.008Z,6.57
2018-11-04T11:49:14.057Z,5.13
2018-11-04T11:51:41.111Z,5.67
2018-11-04T11:54:08.212Z,6.20
2018-11-04T11:56:35.272Z,5.90
2018-11-04T11:59:02.352Z,8.07
2018-11-04T12:01:29.429Z,7.40
2018-11-04T12:03:56.496Z,6.87
2018-11-04T12:06:23.577Z,8.27
2018-11-04T12:08:50.617Z,6.83
2018-11-04T12:11:17.685Z,6.80
2018-11-04T12:13:44.784Z,6.60
2018-11-04T12:16:11.849Z,6.23
2018-11-04T12:18:39.036Z,6.63
2018-11-04T12:21:06.109Z,6.63
2018-11-04T12:23:33.181Z,7.17
2018-11-04T12:26:00.264Z,6.10
2018-11-04T12:28:27.496Z,7.20
2018-11-04T12:30:54.564Z,5.80
2018-11-04T12:33:21.675Z,6.20
2018-11-04T12:35:48.728Z,6.47
2018-11-04T12:38:15.800Z,5.73
2018-11-04T12:40:42.872Z,6.07
2018-11-04T12:43:09.946Z,5.60
2018-11-04T12:45:37.057Z,6.30
2018-11-04T12:48:04.296Z,5.60
2018-11-04T12:50:31.356Z,5.67
2018-11-04T12:52:58.428Z,4.70
2018-11-04T12:55:25.520Z,4.90
2018-11-04T12:57:52.568Z,5.40
2018-11-04T13:00:19.656Z,5.60
2018-11-04T13:02:46.721Z,10.10
2018-11-04T13:05:14.016Z,14.23
2018-11-04T13:07:41.067Z,19.70
2018-11-04T13:10:09.955Z,19.83
2018-11-04T13:12:37.745Z,21.83
2018-11-04T13:15:05.385Z,21.87
2018-11-04T13:17:32.444Z,21.83
2018-11-04T13:19:59.508Z,19.97
2018-11-04T13:22:26.719Z,20.07
2018-11-04T13:24:53.756Z,18.93
2018-11-04T13:27:20.824Z,19.00
2018-11-04T13:29:47.870Z,19.87
2018-11-04T13:32:14.985Z,18.73
2018-11-04T13:34:42.030Z,18.40
2018-11-04T13:37:09.088Z,19.93
2018-11-04T13:39:36.144Z,17.67
2018-11-04T13:42:03.193Z,16.83
2018-11-04T13:44:30.245Z,16.57
2018-11-04T13:46:57.289Z,15.70
2018-11-04T13:49:24.463Z,14.57
2018-11-04T13:51:51.468Z,14.83
2018-11-04T13:54:18.525Z,13.77
2018-11-04T13:56:45.607Z,15.27
2018-11-04T13:59:12.665Z,12.17
2018-11-04T14:01:39.897Z,13.97
2018-11-04T14:04:06.948Z,12.37
2018-11-04T14:06:34.300Z,12.97
2018-11-04T14:09:01.360Z,12.30
2018-11-04T14:11:28.433Z,13.37
2018-11-04T14:13:55.536Z,13.40
2018-11-04T14:16:22.603Z,11.77
2018-11-04T14:18:49.660Z,12.00
2018-11-04T14:21:16.712Z,12.03
2018-11-04T14:23:43.828Z,10.93
2018-11-04T14:26:10.847Z,10.43
2018-11-04T14:28:37.905Z,11.80
2018-11-04T14:31:05.047Z,10.97
2018-11-04T14:33:32.060Z,10.93
2018-11-04T14:35:59.148Z,10.37
2018-11-04T14:38:26.193Z,9.43
2018-11-04T14:40:53.252Z,10.00
2018-11-04T14:43:20.316Z,8.13
2018-11-04T14:45:47.451Z,8.53
2018-11-04T14:48:14.432Z,7.57
2018-11-04T14:50:41.546Z,8.97
2018-11-04T14:53:08.595Z,8.53
2018-11-04T14:55:35.700Z,7.33
2018-11-04T14:58:02.776Z,8.87
2018-11-04T15:00:34.070Z,8.07
2018-11-04T15:03:01.585Z,6.97
2018-11-04T15:05:28.653Z,8.10
2018-11-04T15:07:55.792Z,7.90
2018-11-04T15:10:22.848Z,7.27
2018-11-04T15:12:49.896Z,6.77
2018-11-04T15:15:17.104Z,6.07
2018-11-04T15:17:44.192Z,6.93
2018-11-04T15:20:11.628Z,6.67
2018-11-04T15:22:40.361Z,6.80
2018-11-04T15:25:07.416Z,6.20
2018-11-04T15:27:34.479Z,6.93
2018-11-04T15:30:01.520Z,7.07
2018-11-04T15:32:28.569Z,5.90
2018-11-04T15:34:55.648Z,6.17
2018-11-04T15:37:22.708Z,6.80
2018-11-04T15:39:49.764Z,5.67
2018-11-04T15:42:16.844Z,6.63
2018-11-04T15:44:43.923Z,5.70
2018-11-04T15:47:10.956Z,6.07
2018-11-04T15:49:38.021Z,5.57
2018-11-04T15:52:05.097Z,5.50
2018-11-04T15:54:32.157Z,5.67
2018-11-04T15:57:04.754Z,5.37
2018-11-04T15:59:31.792Z,5.77
2018-11-04T16:01:58.915Z,5.53
2018-11-04T16:04:25.962Z,5.03
2018-11-04T16:06:53.029Z,5.57
2018-11-04T16:09:20.084Z,5.87
2018-11-04T16:11:47.144Z,4.50
2018-11-04T16:14:14.206Z,5.70
2018-11-04T16:16:41.259Z,5.23
2018-11-04T16:19:08.371Z,5.17
2018-11-04T16:21:35.445Z,5.53
2018-11-04T16:24:02.504Z,5.60
2018-11-04T16:26:29.549Z,5.03
2018-11-04T16:28:56.612Z,4.40
2018-11-04T16:31:23.664Z,4.87
2018-11-04T16:33:50.734Z,5.40
2018-11-04T16:36:17.820Z,4.63
2018-11-04T16:38:44.868Z,4.53
2018-11-04T16:41:11.924Z,4.80
2018-11-04T16:43:39.123Z,4.07
2018-11-04T16:46:06.116Z,4.10
2018-11-04T16:48:33.159Z,4.83
2018-11-04T16:51:00.245Z,4.37
2018-11-04T16:53:27.296Z,4.57
2018-11-04T16:55:54.373Z,5.17
2018-11-04T16:58:21.440Z,4.03
2018-11-04T17:00:48.500Z,4.43
2018-11-04T17:03:15.561Z,4.67
2018-11-04T17:05:42.856Z,3.80
2018-11-04T17:08:09.669Z,3.43
2018-11-04T17:10:36.948Z,3.70
2018-11-04T17:13:04.737Z,3.77
2018-11-04T17:15:31.808Z,3.87
2018-11-04T17:17:58.885Z,3.13
2018-11-04T17:20:25.945Z,3.50
2018-11-04T17:22:53.017Z,3.80
2018-11-04T17:25:20.106Z,3.80
2018-11-04T17:27:47.167Z,3.47
2018-11-04T17:30:16.404Z,3.33
2018-11-04T17:32:43.790Z,3.17
2018-11-04T17:35:12.342Z,3.27
2018-11-04T17:37:39.815Z,3.73
2018-11-04T17:40:07.804Z,3.27
2018-11-04T17:42:35.036Z,3.47
2018-11-04T17:45:02.093Z,3.40
2018-11-04T17:47:29.148Z,3.63
2018-11-04T17:49:56.190Z,2.60
2018-11-04T17:52:23.256Z,3.57
2018-11-04T17:54:50.316Z,3.20
2018-11-04T17:57:17.381Z,3.40
2018-11-04T17:59:45.695Z,3.63
2018-11-04T18:02:12.901Z,3.50
2018-11-04T18:04:39.938Z,3.43
2018-11-04T18:07:07.060Z,2.67
2018-11-04T18:09:34.111Z,4.00
2018-11-04T18:12:01.179Z,3.73
2018-11-04T18:14:28.235Z,3.20
2018-11-04T18:16:55.295Z,3.00
2018-11-04T18:19:22.368Z,4.20
2018-11-04T18:21:49.432Z,3.17
2018-11-04T18:24:16.508Z,3.13
2018-11-04T18:26:43.640Z,3.60
2018-11-04T18:29:10.641Z,3.63
2018-11-04T18:31:37.681Z,2.87
2018-11-04T18:34:04.741Z,3.23
2018-11-04T18:36:31.808Z,3.00
2018-11-04T18:38:58.868Z,3.30
2018-11-04T18:41:25.925Z,3.60
2018-11-04T18:43:53.251Z,3.20
2018-11-04T18:46:20.164Z,3.13
2018-11-04T18:48:47.216Z,3.30
2018-11-04T18:51:14.292Z,3.10
2018-11-04T18:53:41.345Z,3.30
2018-11-04T18:56:08.681Z,3.40
2018-11-04T18:58:35.725Z,3.10
2018-11-04T19:01:02.782Z,2.93
2018-11-04T19:03:29.824Z,3.00
2018-11-04T19:05:56.863Z,2.93
2018-11-04T19:08:23.919Z,3.07
2018-11-04T19:10:51.021Z,3.20
2018-11-04T19:13:18.089Z,3.53
2018-11-04T19:15:45.149Z,3.30
2018-11-04T19:18:12.244Z,2.93
2018-11-04T19:20:39.286Z,2.47
2018-11-04T19:23:06.369Z,2.70
2018-11-04T19:25:33.433Z,2.67
2018-11-04T19:28:00.456Z,2.90
2018-11-04T19:30:28.034Z,2.60
2018-11-04T19:32:55.093Z,2.70
2018-11-04T19:35:22.148Z,2.33
2018-11-04T19:37:49.204Z,2.33
2018-11-04T19:40:16.776Z,2.67
2018-11-04T19:42:43.973Z,3.07
2018-11-04T19:45:10.922Z,2.27
2018-11-04T19:47:38.565Z,3.10
2018-11-04T19:50:07.124Z,2.87
2018-11-04T19:52:34.188Z,2.23
2018-11-04T19:55:01.237Z,2.87
2018-11-04T19:57:29.525Z,2.57
2018-11-04T19:59:57.757Z,2.67
2018-11-04T20:02:24.996Z,2.53
2018-11-04T20:04:52.056Z,3.03
2018-11-04T20:07:19.129Z,2.83
2018-11-04T20:09:46.188Z,2.33
2018-11-04T20:12:19.028Z,2.50
2018-11-04T20:14:46.096Z,2.47
2018-11-04T20:17:13.170Z,2.60
2018-11-04T20:19:46.141Z,3.03
2018-11-04T20:22:13.141Z,2.87
2018-11-04T20:24:46.056Z,2.37
2018-11-04T20:27:13.113Z,2.27
2018-11-04T20:29:40.152Z,2.70
2018-11-04T20:32:13.044Z,3.53
2018-11-04T20:34:40.116Z,2.40
2018-11-04T20:37:07.164Z,2.97
2018-11-04T20:39:39.964Z,2.80
2018-11-04T20:42:07.020Z,2.10
2018-11-04T20:44:38.681Z,3.13
2018-11-04T20:47:05.935Z,2.60
2018-11-04T20:49:38.710Z,2.90
2018-11-04T20:52:07.410Z,2.73
2018-11-04T20:54:34.470Z,3.07
2018-11-04T20:57:07.241Z,2.83
2018-11-04T20:59:34.304Z,2.77
2018-11-04T21:02:01.429Z,2.57
2018-11-04T21:04:28.434Z,2.83
2018-11-04T21:06:55.517Z,2.30
2018-11-04T21:09:22.576Z,2.97
2018-11-04T21:11:49.633Z,2.77
2018-11-04T21:14:16.751Z,2.80
2018-11-04T21:16:43.885Z,3.27
2018-11-04T21:19:10.854Z,3.13
2018-11-04T21:21:38.005Z,3.00
2018-11-04T21:24:05.075Z,3.20
2018-11-04T21:26:32.176Z,2.97
2018-11-04T21:28:59.395Z,2.77
2018-11-04T21:31:26.292Z,2.70
2018-11-04T21:33:53.352Z,3.00
2018-11-04T21:36:22.234Z,2.50
2018-11-04T21:38:49.181Z,3.40
2018-11-04T21:41:16.253Z,3.37
2018-11-04T21:43:43.429Z,2.77
2018-11-04T21:46:10.409Z,3.50
2018-11-04T21:48:37.475Z,2.70
2018-11-04T21:51:04.596Z,2.90
2018-11-04T21:53:31.684Z,2.90
2018-11-04T21:55:58.868Z,2.70
2018-11-04T21:58:25.868Z,2.73
2018-11-04T22:00:52.929Z,2.63
2018-11-04T22:03:20.213Z,3.20
2018-11-04T22:05:47.072Z,2.87
2018-11-04T22:08:14.161Z,2.70
2018-11-04T22:10:41.312Z,3.10
2018-11-04T22:13:08.346Z,2.70
2018-11-04T22:15:35.402Z,3.17
2018-11-04T22:19:27.091Z,3.10
2018-11-04T22:21:54.180Z,2.43
2018-11-04T22:24:21.226Z,3.57
2018-11-04T22:26:48.285Z,2.90
2018-11-04T22:29:15.412Z,3.10
2018-11-04T22:31:42.458Z,2.80
2018-11-04T22:34:09.674Z,2.73
2018-11-04T22:36:36.753Z,3.33
2018-11-04T22:39:06.249Z,3.33
2018-11-04T22:41:33.305Z,2.83
2018-11-04T22:44:00.357Z,2.40
2018-11-04T22:46:27.434Z,3.33
2018-11-04T22:48:54.500Z,3.27
2018-11-04T22:51:21.533Z,3.20
2018-11-04T22:53:48.590Z,3.13
2018-11-04T22:56:15.663Z,2.77
2018-11-04T22:58:42.705Z,2.93
2018-11-04T23:01:09.760Z,2.87
2018-11-04T23:03:36.812Z,3.00
2018-11-04T23:06:05.164Z,3.20
2018-11-04T23:08:32.270Z,2.57
2018-11-04T23:10:59.348Z,2.80
2018-11-04T23:13:26.612Z,2.87
2018-11-04T23:15:53.715Z,3.10
2018-11-04T23:18:20.780Z,3.27
2018-11-04T23:20:48.088Z,3.07
2018-11-04T23:23:15.140Z,3.07
2018-11-04T23:25:42.184Z,3.30
2018-11-04T23:28:09.245Z,3.37
2018-11-04T23:30:36.296Z,2.80
2018-11-04T23:33:03.596Z,2.80
2018-11-04T23:35:30.654Z,3.53
2018-11-04T23:37:57.701Z,3.27
2018-11-04T23:40:24.768Z,3.77
2018-11-04T23:42:51.824Z,3.30
2018-11-04T23:45:18.889Z,3.13
2018-11-04T23:47:45.944Z,3.33
2018-11-04T23:50:14.301Z,3.30
2018-11-04T23:52:41.844Z,3.40
2018-11-04T23:55:09.909Z,3.17
2018-11-04T23:57:36.982Z,3.00
